createdAt,value
2019-03-05T00:01:13.289Z,96417.96
2019-03-05T00:03:48.887Z,96414.70
2019-03-05T00:06:21.854Z,96418.41
2019-03-05T00:08:57.114Z,96408.65
2019-03-05T00:11:31.702Z,96427.89
2019-03-05T00:14:06.115Z,96427.89
2019-03-05T00:16:40.769Z,96433.05
2019-03-05T00:19:13.804Z,96423.86
2019-03-05T00:21:48.141Z,96420.50
2019-03-05T00:25:16.290Z,96424.77
2019-03-05T00:28:20.284Z,96428.13
2019-03-05T00:31:31.631Z,96417.46
2019-03-05T00:34:58.730Z,96427.94
2019-03-05T00:38:16.760Z,96429.66
2019-03-05T00:41:20.727Z,96427.98
2019-03-05T00:44:41.798Z,96435.34
2019-03-05T00:47:41.694Z,96441.90
2019-03-05T00:51:25.260Z,96441.90
2019-03-05T00:54:33.720Z,96436.72
2019-03-05T00:57:19.280Z,96430.53
2019-03-05T01:00:40.954Z,96429.45
2019-03-05T01:03:40.070Z,96432.39
2019-03-05T01:06:27.729Z,96449.89
2019-03-05T01:09:02.281Z,96437.19
2019-03-05T01:11:38.672Z,96439.05
2019-03-05T01:14:13.791Z,96439.05
2019-03-05T01:16:48.319Z,96429.10
2019-03-05T01:19:22.873Z,96423.61
2019-03-05T01:21:55.872Z,96429.50
2019-03-05T01:24:30.255Z,96445.51
2019-03-05T01:27:05.719Z,96427.07
2019-03-05T01:29:40.955Z,96427.07
2019-03-05T01:32:48.140Z,96417.95
2019-03-05T01:35:38.769Z,96418.98
2019-03-05T01:38:11.696Z,96415.48
2019-03-05T01:40:49.632Z,96415.02
2019-03-05T01:43:23.953Z,96415.31
2019-03-05T01:45:58.387Z,96418.37
2019-03-05T01:48:32.929Z,96433.92
2019-03-05T01:51:09.031Z,96433.92
2019-03-05T01:53:43.365Z,96427.79
2019-03-05T01:56:18.889Z,96427.79
2019-03-05T01:58:51.879Z,96423.71
2019-03-05T02:01:27.299Z,96438.20
2019-03-05T02:04:01.829Z,96417.05
2019-03-05T02:06:35.083Z,96430.02
2019-03-05T02:09:09.288Z,96427.37
2019-03-05T02:11:43.959Z,96430.81
2019-03-05T02:14:16.873Z,96427.11
2019-03-05T02:16:51.257Z,96416.41
2019-03-05T02:19:43.932Z,96422.28
2019-03-05T02:22:26.871Z,96430.23
2019-03-05T02:25:22.751Z,96437.43
2019-03-05T02:28:59.953Z,96459.47
2019-03-05T02:32:17.889Z,96424.36
2019-03-05T02:35:41.125Z,96449.14
2019-03-05T02:39:22.609Z,96445.11
2019-03-05T02:46:27.289Z,96447.63
2019-03-05T02:49:47.756Z,96446.45
2019-03-05T02:53:00.154Z,96444.93
2019-03-05T02:56:40.800Z,96440.52
2019-03-05T02:59:12.296Z,96441.77
2019-03-05T03:02:00.604Z,96436.45
2019-03-05T03:04:38.517Z,96440.70
2019-03-05T03:07:12.964Z,96446.77
2019-03-05T03:10:14.410Z,96436.05
2019-03-05T03:12:49.335Z,96436.05
2019-03-05T03:15:23.773Z,96485.13
2019-03-05T03:17:56.869Z,96455.67
2019-03-05T03:20:31.285Z,96462.54
2019-03-05T03:23:05.770Z,96446.26
2019-03-05T03:25:40.129Z,96460.77
2019-03-05T03:28:14.759Z,96475.41
2019-03-05T03:30:49.112Z,96472.66
2019-03-05T03:33:23.892Z,96480.80
2019-03-05T03:35:58.678Z,96471.29
2019-03-05T03:38:32.945Z,96490.62
2019-03-05T03:41:06.961Z,96474.50
2019-03-05T03:43:41.124Z,96486.39
2019-03-05T03:46:15.627Z,96499.87
2019-03-05T03:48:49.953Z,96499.87
2019-03-05T03:51:24.325Z,96502.11
2019-03-05T03:53:58.704Z,96500.39
2019-03-05T03:56:33.293Z,96512.08
2019-03-05T03:59:07.888Z,96502.66
2019-03-05T04:01:41.065Z,96522.86
2019-03-05T04:04:15.288Z,96514.20
2019-03-05T04:06:49.943Z,96517.27
2019-03-05T04:09:22.873Z,96518.09
2019-03-05T04:11:57.108Z,96524.83
2019-03-05T04:14:31.332Z,96520.52
2019-03-05T04:17:05.787Z,96520.52
2019-03-05T04:19:40.130Z,96543.03
2019-03-05T04:22:14.686Z,96520.21
2019-03-05T04:24:49.114Z,96520.21
2019-03-05T04:27:23.694Z,96514.73
2019-03-05T04:30:52.304Z,96518.34
2019-03-05T04:33:27.302Z,96529.08
2019-03-05T04:38:23.672Z,96547.69
2019-03-05T04:40:58.286Z,96547.69
2019-03-05T04:43:32.781Z,96547.07
2019-03-05T04:46:30.417Z,96557.19
2019-03-05T04:49:15.653Z,96556.22
2019-03-05T04:51:53.622Z,96548.06
2019-03-05T04:54:27.953Z,96552.80
2019-03-05T04:57:02.877Z,96572.86
2019-03-05T04:59:37.285Z,96551.09
2019-03-05T05:02:11.894Z,96557.56
2019-03-05T05:04:44.858Z,96548.73
2019-03-05T05:07:19.290Z,96546.78
2019-03-05T05:09:53.890Z,96542.97
2019-03-05T05:12:28.282Z,96555.20
2019-03-05T05:15:02.785Z,96540.72
2019-03-05T05:17:35.860Z,96549.34
2019-03-05T05:20:10.267Z,96557.95
2019-03-05T05:22:44.860Z,96552.80
2019-03-05T05:25:18.940Z,96550.06
2019-03-05T05:27:51.863Z,96552.20
2019-03-05T05:30:40.569Z,96559.55
2019-03-05T05:33:15.516Z,96559.55
2019-03-05T05:35:49.953Z,96557.69
2019-03-05T05:38:23.064Z,96554.32
2019-03-05T05:40:55.919Z,96570.80
2019-03-05T05:43:30.878Z,96562.60
2019-03-05T05:46:05.256Z,96584.07
2019-03-05T05:48:39.915Z,96563.63
2019-03-05T05:51:13.058Z,96565.69
2019-03-05T05:53:47.387Z,96571.33
2019-03-05T05:56:22.122Z,96569.49
2019-03-05T05:58:56.738Z,96580.94
2019-03-05T06:01:31.310Z,96564.20
2019-03-05T06:04:05.956Z,96569.38
2019-03-05T06:06:40.386Z,96574.23
2019-03-05T06:09:15.286Z,96575.14
2019-03-05T06:11:50.283Z,96575.86
2019-03-05T06:14:25.323Z,96581.23
2019-03-05T06:16:59.797Z,96577.66
2019-03-05T06:19:33.290Z,96588.35
2019-03-05T06:22:07.646Z,96580.34
2019-03-05T06:24:42.280Z,96575.05
2019-03-05T06:27:17.106Z,96575.05
2019-03-05T06:29:51.745Z,96589.61
2019-03-05T06:32:26.290Z,96598.47
2019-03-05T06:35:00.902Z,96591.29
2019-03-05T06:37:35.871Z,96594.04
2019-03-05T06:40:11.998Z,96593.78
2019-03-05T06:42:45.272Z,96580.26
2019-03-05T06:45:20.254Z,96583.00
2019-03-05T06:47:55.006Z,96581.36
2019-03-05T06:50:29.648Z,96597.86
2019-03-05T06:53:04.127Z,96597.86
2019-03-05T06:55:38.696Z,96607.88
2019-03-05T06:58:13.337Z,96625.88
2019-03-05T07:00:48.148Z,96653.91
2019-03-05T07:03:22.785Z,96650.91
2019-03-05T07:06:32.282Z,96643.28
2019-03-05T07:09:21.343Z,96646.70
2019-03-05T07:13:09.385Z,96646.70
2019-03-05T07:17:00.763Z,96648.81
2019-03-05T07:19:58.296Z,96639.38
2019-03-05T07:22:50.320Z,96640.84
2019-03-05T07:25:24.936Z,96640.78
2019-03-05T07:27:59.599Z,96640.78
2019-03-05T07:30:34.243Z,96653.53
2019-03-05T07:33:08.703Z,96647.12
2019-03-05T07:35:43.730Z,96641.97
2019-03-05T07:38:18.255Z,96654.91
2019-03-05T07:40:52.762Z,96654.91
2019-03-05T07:46:12.683Z,96660.72
2019-03-05T07:48:46.943Z,96671.36
2019-03-05T07:51:19.872Z,96664.44
2019-03-05T07:53:55.288Z,96680.02
2019-03-05T07:56:29.835Z,96676.86
2019-03-05T07:59:03.274Z,96689.23
2019-03-05T08:01:37.702Z,96683.59
2019-03-05T08:04:12.116Z,96683.59
2019-03-05T08:06:46.711Z,96702.84
2019-03-05T08:09:52.277Z,96698.00
2019-03-05T08:13:06.736Z,96699.42
2019-03-05T08:16:26.997Z,96719.77
2019-03-05T08:19:01.329Z,96719.15
2019-03-05T08:21:36.757Z,96708.30
2019-03-05T08:24:11.271Z,96716.50
2019-03-05T08:26:45.686Z,96718.19
2019-03-05T08:29:20.333Z,96717.41
2019-03-05T08:31:54.949Z,96728.46
2019-03-05T08:34:29.261Z,96724.54
2019-03-05T08:37:03.774Z,96724.89
2019-03-05T08:39:38.278Z,96721.78
2019-03-05T08:42:12.705Z,96721.78
2019-03-05T08:44:50.735Z,96719.91
2019-03-05T08:47:23.137Z,96722.47
2019-03-05T08:49:57.663Z,96737.39
2019-03-05T08:52:32.256Z,96737.39
2019-03-05T08:55:06.939Z,96732.31
2019-03-05T08:57:41.324Z,96729.52
2019-03-05T09:00:17.764Z,96722.96
2019-03-05T09:02:52.252Z,96722.29
2019-03-05T09:05:27.731Z,96733.30
2019-03-05T09:08:03.559Z,96725.42
2019-03-05T09:10:38.038Z,96724.92
2019-03-05T09:13:12.780Z,96727.88
2019-03-05T09:15:47.330Z,96725.27
2019-03-05T09:18:23.519Z,96724.13
2019-03-05T09:20:58.298Z,96729.52
2019-03-05T09:23:32.889Z,96730.74
2019-03-05T09:26:05.854Z,96746.11
2019-03-05T09:28:40.114Z,96735.36
2019-03-05T09:31:14.652Z,96737.41
2019-03-05T09:33:49.133Z,96732.69
2019-03-05T09:36:23.714Z,96736.20
2019-03-05T09:38:58.111Z,96735.59
2019-03-05T09:41:32.699Z,96738.60
2019-03-05T09:44:07.116Z,96745.20
2019-03-05T09:46:41.726Z,96735.23
2019-03-05T09:49:16.119Z,96729.86
2019-03-05T09:51:50.665Z,96743.56
2019-03-05T09:54:25.246Z,96743.56
2019-03-05T09:56:59.731Z,96731.35
2019-03-05T09:59:32.844Z,96731.91
2019-03-05T10:02:07.101Z,96727.39
2019-03-05T10:04:42.256Z,96732.75
2019-03-05T10:07:19.255Z,96736.25
2019-03-05T10:09:52.946Z,96729.69
2019-03-05T10:12:27.135Z,96727.25
2019-03-05T10:15:01.742Z,96733.47
2019-03-05T10:17:38.148Z,96732.66
2019-03-05T10:20:16.678Z,96735.12
2019-03-05T10:22:51.721Z,96737.17
2019-03-05T10:25:25.360Z,96732.14
2019-03-05T10:27:59.894Z,96768.30
2019-03-05T10:30:33.090Z,96742.09
2019-03-05T10:33:10.078Z,96732.38
2019-03-05T10:35:44.776Z,96732.31
2019-03-05T10:38:17.707Z,96732.31
2019-03-05T10:40:53.222Z,96725.78
2019-03-05T10:43:27.667Z,96741.42
2019-03-05T10:46:02.277Z,96727.70
2019-03-05T10:48:36.762Z,96725.13
2019-03-05T10:51:11.286Z,96718.03
2019-03-05T10:53:45.709Z,96719.47
2019-03-05T10:56:18.853Z,96735.98
2019-03-05T10:58:53.123Z,96725.21
2019-03-05T11:01:27.688Z,96724.88
2019-03-05T11:04:02.318Z,96721.63
2019-03-05T11:06:36.950Z,96712.80
2019-03-05T11:09:12.285Z,96722.27
2019-03-05T11:11:46.947Z,96722.27
2019-03-05T11:14:21.643Z,96732.69
2019-03-05T11:16:56.246Z,96732.69
2019-03-05T11:19:30.699Z,96719.38
2019-03-05T11:22:07.280Z,96742.70
2019-03-05T11:24:41.947Z,96724.05
2019-03-05T11:27:16.709Z,96728.50
2019-03-05T11:29:51.294Z,96731.57
2019-03-05T11:32:25.925Z,96714.58
2019-03-05T11:35:00.402Z,96723.16
2019-03-05T11:37:34.950Z,96699.32
2019-03-05T11:40:20.666Z,96699.32
2019-03-05T11:42:48.323Z,96713.59
2019-03-05T11:45:25.741Z,96701.08
2019-03-05T11:47:59.577Z,96710.22
2019-03-05T11:50:33.943Z,96706.69
2019-03-05T11:53:08.635Z,96710.20
2019-03-05T11:55:43.129Z,96706.34
2019-03-05T11:58:17.675Z,96729.72
2019-03-05T12:01:07.870Z,96734.48
2019-03-05T12:03:42.323Z,96735.53
2019-03-05T12:06:16.927Z,96725.50
2019-03-05T12:08:51.284Z,96731.52
2019-03-05T12:11:27.101Z,96764.23
2019-03-05T12:14:01.797Z,96778.45
2019-03-05T12:16:36.281Z,96795.05
2019-03-05T12:19:11.269Z,96795.05
2019-03-05T12:21:46.789Z,96790.52
2019-03-05T12:24:23.907Z,96793.69
2019-03-05T12:26:56.106Z,96783.02
2019-03-05T12:29:30.702Z,96785.91
2019-03-05T12:32:03.865Z,96801.46
2019-03-05T12:34:37.280Z,96789.98
2019-03-05T12:37:11.662Z,96772.62
2019-03-05T12:39:46.940Z,96772.62
2019-03-05T12:42:19.800Z,96774.69
2019-03-05T12:44:54.122Z,96773.81
2019-03-05T12:47:28.663Z,96770.84
2019-03-05T12:50:02.952Z,96770.84
2019-03-05T12:52:37.350Z,96776.27
2019-03-05T12:55:12.111Z,96781.50
2019-03-05T12:57:47.686Z,96777.22
2019-03-05T13:00:44.936Z,96789.16
2019-03-05T13:03:17.864Z,96789.16
2019-03-05T13:05:52.164Z,96787.21
2019-03-05T13:08:28.607Z,96779.85
2019-03-05T13:11:02.923Z,96779.85
2019-03-05T13:13:37.477Z,96787.18
2019-03-05T13:16:13.910Z,96796.19
2019-03-05T13:18:48.327Z,96786.50
2019-03-05T13:21:22.909Z,96786.50
2019-03-05T13:23:57.326Z,96793.58
2019-03-05T13:26:31.879Z,96786.81
2019-03-05T13:29:06.282Z,96787.80
2019-03-05T13:31:42.099Z,96792.63
2019-03-05T13:34:17.795Z,96791.38
2019-03-05T13:36:51.816Z,96782.70
2019-03-05T13:39:26.134Z,96776.99
2019-03-05T13:42:00.688Z,96773.03
2019-03-05T13:44:38.665Z,96763.36
2019-03-05T13:47:13.597Z,96771.36
2019-03-05T13:50:31.789Z,96759.98
2019-03-05T13:54:14.637Z,96759.98
2019-03-05T13:57:54.683Z,96762.37
2019-03-05T14:00:27.273Z,96760.91
2019-03-05T14:03:14.753Z,96774.56
2019-03-05T14:06:54.289Z,96779.45
2019-03-05T14:09:25.758Z,96784.69
2019-03-05T14:11:58.705Z,96761.86
2019-03-05T14:14:33.622Z,96763.45
2019-03-05T14:17:33.285Z,96763.92
2019-03-05T14:20:12.286Z,96758.78
2019-03-05T14:22:46.706Z,96763.17
2019-03-05T14:25:21.284Z,96776.29
2019-03-05T14:27:55.794Z,96782.06
2019-03-05T14:30:28.799Z,96801.62
2019-03-05T14:33:02.976Z,96791.11
2019-03-05T14:35:37.970Z,96791.27
2019-03-05T14:38:12.369Z,96791.27
2019-03-05T14:40:46.911Z,96801.77
2019-03-05T14:43:21.208Z,96790.31
2019-03-05T14:45:56.282Z,96815.48
2019-03-05T14:48:31.901Z,96818.15
2019-03-05T14:51:05.948Z,96818.15
2019-03-05T14:53:40.736Z,96833.44
2019-03-05T14:56:14.113Z,96833.44
2019-03-05T14:58:48.735Z,96831.22
2019-03-05T15:01:23.295Z,96842.27
2019-03-05T15:03:58.230Z,96831.80
2019-03-05T15:06:32.724Z,96836.66
2019-03-05T15:09:06.792Z,96834.20
2019-03-05T15:11:39.895Z,96834.95
2019-03-05T15:14:14.290Z,96840.08
2019-03-05T15:16:48.929Z,96833.53
2019-03-05T15:19:23.281Z,96837.94
2019-03-05T15:21:58.123Z,96843.17
2019-03-05T15:24:32.890Z,96857.19
2019-03-05T15:27:05.884Z,96836.91
2019-03-05T15:29:40.291Z,96836.91
2019-03-05T15:32:14.959Z,96840.33
2019-03-05T15:34:49.722Z,96834.29
2019-03-05T15:37:24.161Z,96831.69
2019-03-05T15:39:58.801Z,96843.78
2019-03-05T15:42:31.838Z,96843.78
2019-03-05T15:45:06.685Z,96841.40
2019-03-05T15:47:42.701Z,96843.34
2019-03-05T15:50:19.351Z,96849.12
2019-03-05T15:52:53.896Z,96861.31
2019-03-05T15:55:28.405Z,96852.41
2019-03-05T15:58:03.279Z,96848.09
2019-03-05T16:00:37.764Z,96856.68
2019-03-05T16:03:10.793Z,96849.76
2019-03-05T16:05:45.277Z,96841.74
2019-03-05T16:08:21.005Z,96839.13
2019-03-05T16:10:58.629Z,96853.17
2019-03-05T16:13:32.757Z,96849.99
2019-03-05T16:16:06.908Z,96869.45
2019-03-05T16:18:41.401Z,96893.97
2019-03-05T16:21:16.108Z,96893.97
2019-03-05T16:23:50.757Z,96918.16
2019-03-05T16:26:25.281Z,96918.16
2019-03-05T16:28:59.873Z,96899.78
2019-03-05T16:31:59.351Z,96909.67
2019-03-05T16:34:51.410Z,96917.13
2019-03-05T16:37:50.632Z,96930.34
2019-03-05T16:40:58.864Z,96930.14
2019-03-05T16:43:43.708Z,96936.14
2019-03-05T16:46:54.958Z,96942.72
2019-03-05T16:49:47.626Z,96937.98
2019-03-05T16:52:43.516Z,96950.31
2019-03-05T16:55:26.291Z,96950.31
2019-03-05T16:58:22.357Z,96971.86
2019-03-05T17:01:34.284Z,96971.70
2019-03-05T17:04:36.718Z,96973.06
2019-03-05T17:07:27.334Z,96988.30
2019-03-05T17:10:21.294Z,96994.87
2019-03-05T17:12:56.115Z,96997.63
2019-03-05T17:15:30.670Z,97012.43
2019-03-05T17:18:05.266Z,97008.31
2019-03-05T17:20:39.751Z,97015.02
2019-03-05T17:23:14.687Z,97021.29
2019-03-05T17:25:49.279Z,97024.17
2019-03-05T17:28:23.946Z,97020.20
2019-03-05T17:30:58.267Z,97043.86
2019-03-05T17:33:33.918Z,97043.86
2019-03-05T17:36:08.315Z,97044.78
2019-03-05T17:38:42.944Z,97046.75
2019-03-05T17:41:17.735Z,97055.91
2019-03-05T17:43:51.855Z,97050.55
2019-03-05T17:46:26.277Z,97057.73
2019-03-05T17:49:00.986Z,97071.91
2019-03-05T17:51:36.273Z,97078.30
2019-03-05T17:54:10.941Z,97078.30
2019-03-05T17:56:45.672Z,97092.34
2019-03-05T17:59:20.326Z,97094.89
2019-03-05T18:01:55.274Z,97095.17
2019-03-05T18:04:29.798Z,97098.08
2019-03-05T18:07:04.717Z,97101.88
2019-03-05T18:09:37.691Z,97110.59
2019-03-05T18:12:12.127Z,97113.17
2019-03-05T18:14:46.728Z,97113.01
2019-03-05T18:17:20.061Z,97122.77
2019-03-05T18:19:55.281Z,97128.22
2019-03-05T18:22:29.861Z,97136.02
2019-03-05T18:25:02.859Z,97136.02
2019-03-05T18:28:09.684Z,97140.58
2019-03-05T18:30:42.848Z,97137.53
2019-03-05T18:33:17.273Z,97144.53
2019-03-05T18:35:51.930Z,97154.61
2019-03-05T18:38:26.635Z,97154.95
2019-03-05T18:41:01.289Z,97154.95
2019-03-05T18:43:36.260Z,97159.19
2019-03-05T18:46:10.943Z,97163.45
2019-03-05T18:48:45.924Z,97169.23
2019-03-05T18:51:18.872Z,97171.85
2019-03-05T18:53:53.274Z,97175.86
2019-03-05T18:56:27.894Z,97179.06
2019-03-05T18:59:01.109Z,97183.00
2019-03-05T19:01:36.444Z,97183.00
2019-03-05T19:04:11.242Z,97191.66
2019-03-05T19:08:31.321Z,97196.11
2019-03-05T19:11:06.114Z,97208.71
2019-03-05T19:13:40.978Z,97214.05
2019-03-05T19:16:15.525Z,97221.08
2019-03-05T19:18:49.935Z,97230.80
2019-03-05T19:21:24.316Z,97237.82
2019-03-05T19:23:58.943Z,97244.38
2019-03-05T19:26:33.638Z,97255.50
2019-03-05T19:29:08.283Z,97254.29
2019-03-05T19:31:43.275Z,97262.24
2019-03-05T19:34:18.108Z,97271.17
2019-03-05T19:36:52.716Z,97269.38
2019-03-05T19:39:27.278Z,97271.01
2019-03-05T19:42:02.293Z,97281.47
2019-03-05T19:44:37.272Z,97281.47
2019-03-05T19:47:11.899Z,97284.08
2019-03-05T19:49:46.687Z,97289.26
2019-03-05T19:52:21.288Z,97292.31
2019-03-05T19:54:58.298Z,97289.31
2019-03-05T19:57:33.290Z,97294.83
2019-03-05T20:00:32.968Z,97291.17
2019-03-05T20:03:08.176Z,97293.06
2019-03-05T20:05:43.256Z,97308.48
2019-03-05T20:08:18.305Z,97306.80
2019-03-05T20:10:53.281Z,97305.17
2019-03-05T20:13:28.558Z,97310.97
2019-03-05T20:16:03.284Z,97311.25
2019-03-05T20:18:37.944Z,97316.72
2019-03-05T20:21:12.946Z,97313.95
2019-03-05T20:23:46.264Z,97317.66
2019-03-05T20:26:20.721Z,97323.26
2019-03-05T20:28:53.905Z,97323.26
2019-03-05T20:31:27.134Z,97323.66
2019-03-05T20:34:02.284Z,97320.23
2019-03-05T20:36:37.286Z,97320.23
2019-03-05T20:39:13.948Z,97328.77
2019-03-05T20:41:50.270Z,97327.69
2019-03-05T20:44:25.003Z,97328.63
2019-03-05T20:46:59.762Z,97343.74
2019-03-05T20:49:33.110Z,97339.16
2019-03-05T20:53:40.708Z,97338.02
2019-03-05T20:56:15.665Z,97346.25
2019-03-05T20:58:48.786Z,97346.55
2019-03-05T21:01:23.431Z,97341.97
2019-03-05T21:03:58.134Z,97346.22
2019-03-05T21:06:33.285Z,97347.55
2019-03-05T21:09:20.807Z,97349.70
2019-03-05T21:11:55.748Z,97366.59
2019-03-05T21:14:30.285Z,97364.22
2019-03-05T21:17:04.749Z,97362.88
2019-03-05T21:19:37.870Z,97371.67
2019-03-05T21:22:46.870Z,97379.54
2019-03-05T21:25:21.782Z,97375.55
2019-03-05T21:27:55.037Z,97375.55
2019-03-05T21:30:28.045Z,97380.74
2019-03-05T21:33:02.307Z,97384.09
2019-03-05T21:35:36.936Z,97385.26
2019-03-05T21:38:11.329Z,97384.66
2019-03-05T21:40:45.946Z,97389.41
2019-03-05T21:43:19.593Z,97394.13
2019-03-05T21:45:55.320Z,97397.17
2019-03-05T21:48:29.955Z,97403.45
2019-03-05T21:51:04.832Z,97409.11
2019-03-05T21:53:39.337Z,97409.11
2019-03-05T21:56:13.901Z,97411.05
2019-03-05T21:58:47.061Z,97403.09
2019-03-05T22:01:21.311Z,97421.52
2019-03-05T22:03:56.111Z,97423.35
2019-03-05T22:06:30.776Z,97421.08
2019-03-05T22:09:05.006Z,97427.34
2019-03-05T22:11:40.898Z,97427.70
2019-03-05T22:14:14.619Z,97437.94
2019-03-05T22:16:48.889Z,97440.94
2019-03-05T22:19:23.281Z,97444.96
2019-03-05T22:21:58.093Z,97436.52
2019-03-05T22:24:32.663Z,97450.06
2019-03-05T22:27:07.111Z,97450.06
2019-03-05T22:29:41.886Z,97452.16
2019-03-05T22:32:16.301Z,97448.78
2019-03-05T22:34:52.588Z,97444.53
2019-03-05T22:37:27.282Z,97454.00
2019-03-05T22:40:03.291Z,97456.36
2019-03-05T22:42:37.746Z,97452.08
2019-03-05T22:45:16.358Z,97457.56
2019-03-05T22:47:51.284Z,97458.08
2019-03-05T22:50:26.972Z,97458.24
2019-03-05T22:53:01.768Z,97462.10
2019-03-05T22:55:36.291Z,97461.70
2019-03-05T22:58:11.215Z,97463.04
2019-03-05T23:01:12.443Z,97464.45
2019-03-05T23:03:58.286Z,97468.43
2019-03-05T23:06:33.069Z,97474.95
2019-03-05T23:09:14.915Z,97474.95
2019-03-05T23:11:49.796Z,97473.75
2019-03-05T23:14:23.574Z,97471.10
2019-03-05T23:16:57.953Z,97472.08
2019-03-05T23:19:32.289Z,97474.78
2019-03-05T23:22:06.975Z,97476.84
2019-03-05T23:24:41.602Z,97480.27
2019-03-05T23:27:16.255Z,97485.28
2019-03-05T23:29:51.740Z,97487.77
2019-03-05T23:32:24.794Z,97491.83
2019-03-05T23:34:58.667Z,97488.48
2019-03-05T23:37:33.119Z,97484.22
2019-03-05T23:40:07.959Z,97489.44
2019-03-05T23:42:42.951Z,97485.28
2019-03-05T23:45:16.288Z,97485.28
2019-03-05T23:47:50.705Z,97492.31
2019-03-05T23:50:25.269Z,97492.31
2019-03-05T23:52:59.720Z,97490.55
2019-03-05T23:55:34.376Z,97496.30
2019-03-05T23:58:08.797Z,97498.40
